Eastport, Michigan
Current Conditions -  °F | °C
As of 3:35 AM on Saturday 01 Nov 2014 (Local Time) from KACB Reporting Station
Clear Clear  
Wind Chill: 23°   Ceiling: Unl
Heat Index: 28°   Visibility: 10mi
Dew Point: 18°   Wind: 5mph
Humidity: 65%   Direction: 20°NNE
Pressure: 30.4"   Gusts: NA
Location:  45.11°N, 85.35°W
Report Text: KACB 010735Z AUTO 02004KT 10SM CLR M02/M08 A3040 RMK AO2 T10221080
Loading
Personal Weather Stations






























Interactive Weather Map
Tropical Storm Tracking
New forecast layout! Learn more

10-Day Weather Forecast

Advertisements
Track Severe Weather on mobile